Portada
METAR-TAF:

METAR-TAF

Aeroports :

Aeroport de Lampedusa

Lampedusa, Itàlia

latitud: 35-30N, longitud: 012-36E, altitud: 16 m

Observació

L'informe es va fer fa 44 minuts, a les 17:50 UTC
Vent 3 kt del Nord-Est
Temperatura 21°C
Humitat 78%
Pressió 1015 hPa
Visibilitat 10 km o més
sense núvols per sota de 1500 mi sense presència de cumulonimbus.

METAR: LICD 251750Z 04003KT CAVOK 21/17 Q1015

Hora: 20:34 (18:34 UTC)

Pronòstic

L'informe es va fer fa 1 hora i 34 minuts, a les 17:00 UTC
Pronòstic vàlid del 25 a les 18 UTC al 26 a les 18 UTC
Vent 5 kt amb direcció variable
Visibilitat 10 km o més
sense núvols per sota de 1500 mi sense presència de cumulonimbus.
Evolucionant progressivament
l' 26 a les 10 UTC al 26 a les 12 UTC
Vent 10 kt del Sud/Sud-Est

TAF: LICD 251700Z 2518/2618 VRB05KT CAVOK BECMG 2610/2612 15010KT

Observacions i pronòstics meteorològics de més de 4000 aeroports (METAR i TAF).

Les estacions disponibles són els punts grocs i vermells al mapa.

Posi el ratolí al punt desitjat per veure el nom de l'estació.

Feu clic per veure les observacions i els pronòstics meteorològics.

Per canviar el mapa: feu clic els botons verds amb una creu de color negre per apropar; al botó verd amb un guió per allunyar la imatge; o en les fletxes verdes per a mapes adjacents.


METAR-TAF: